»·PEaware :: ASA543 KLAX-KPDX

ASA543 :: KLAX-KPDX

FLIGHT INFORMATION

Flight Status: Arrived
Operator:
Alaska Airlines
More flights by this operator :: More flights under this callsign
Pilot: Matthew M. (5545)
Aircraft: BOEING 737-800
(B738)
More flights by this aircraft type
Origin: KLAX Los Angeles Intl
United States
Destination: KPDX Portland Intl
United States
More flights between these airports :: More routes between these airports
Route: LADYJ4 CSTRO DUCKE LMT MOXEE TMBRS2
File this flight plan on PilotEdge
Remarks:
Altitude:
(Current/Filed)
38,000ft
Speed:
(Current/Filed)
480kts
Departed: 02-Oct-18 08:25 PM
Arrived: 02-Oct-18 10:26 PM
Distance/Time
Traveled:
725nm/2:01
Distance/Time
To Go:
Arrived

Flight Plot

Page will automatically refresh every two minutes.

Flight plan parsing failed; only flown route is shown


Map Options




Map Legend


Flown Route
Filed Route
Departure Airport
Arrival Airport
Navaid (VOR, NDB)
Fix

Horizontal Profiles

Position Reports

Time Latitude Longitude Heading Altitude Ground
Speed
02-Oct-18 20:11 33.940014 -118.402355 40 113ft 0kts
02-Oct-18 20:12 33.940014 -118.402355 40 113ft 0kts
02-Oct-18 20:13 33.940014 -118.402355 40 113ft 0kts
02-Oct-18 20:14 33.940014 -118.402355 40 113ft 0kts
02-Oct-18 20:15 33.940014 -118.402355 40 113ft 0kts
02-Oct-18 20:16 33.939930 -118.402437 37 113ft 2kts
02-Oct-18 20:17 33.939733 -118.402761 92 113ft 2kts
02-Oct-18 20:18 33.939962 -118.403051 175 113ft 1kts
02-Oct-18 20:19 33.939993 -118.403056 171 113ft 0kts
02-Oct-18 20:20 33.939992 -118.403056 171 113ft 0kts
02-Oct-18 20:21 33.939482 -118.401158 83 113ft 21kts
02-Oct-18 20:22 33.939997 -118.396011 83 113ft 28kts
02-Oct-18 20:23 33.940509 -118.390978 84 113ft 26kts
02-Oct-18 20:24 33.940298 -118.385060 83 113ft 29kts
02-Oct-18 20:25 33.940761 -118.380382 101 113ft 0kts
02-Oct-18 20:26 33.940761 -118.380382 101 113ft 0kts
02-Oct-18 20:27 33.939438 -118.384021 262 113ft 84kts
02-Oct-18 20:28 33.933005 -118.446944 262 2755ft 195kts
02-Oct-18 20:29 33.927576 -118.507441 263 4693ft 234kts
02-Oct-18 20:30 33.923797 -118.585818 283 5149ft 237kts
02-Oct-18 20:31 33.968380 -118.651064 314 7394ft 280kts
02-Oct-18 20:32 34.037220 -118.682276 3 10030ft 309kts
02-Oct-18 20:33 34.103170 -118.668556 13 12194ft 337kts
02-Oct-18 20:34 34.166998 -118.650758 10 14107ft 359kts
02-Oct-18 20:35 34.253024 -118.635797 352 16502ft 376kts
02-Oct-18 20:36 34.352551 -118.656956 344 18999ft 394kts
02-Oct-18 20:37 34.460503 -118.681000 346 21442ft 413kts
02-Oct-18 20:38 34.575250 -118.703287 345 23688ft 430kts
02-Oct-18 20:39 34.693845 -118.726844 341 25726ft 444kts
02-Oct-18 20:40 34.803843 -118.788742 322 27679ft 441kts
02-Oct-18 20:41 34.911194 -118.862849 321 29471ft 454kts
02-Oct-18 20:42 35.020145 -118.937971 322 31617ft 452kts
02-Oct-18 20:43 35.123223 -119.009248 322 33496ft 448kts
02-Oct-18 20:44 35.222079 -119.077802 322 35072ft 444kts
02-Oct-18 20:45 35.328632 -119.151935 322 36556ft 442kts
02-Oct-18 20:46 35.428746 -119.221737 323 37761ft 442kts
02-Oct-18 20:47 35.551249 -119.272025 338 37881ft 487kts
02-Oct-18 20:48 35.683734 -119.318030 338 37871ft 499kts
02-Oct-18 20:49 35.815999 -119.364842 338 37875ft 497kts
02-Oct-18 20:50 35.948877 -119.411845 338 37873ft 498kts
02-Oct-18 20:51 36.081377 -119.458717 338 37870ft 498kts
02-Oct-18 20:52 36.211120 -119.504608 338 37856ft 497kts
02-Oct-18 20:53 36.344069 -119.551629 338 37855ft 497kts
02-Oct-18 20:54 36.476677 -119.598537 338 37860ft 498kts
02-Oct-18 20:55 36.609404 -119.645475 338 37853ft 497kts
02-Oct-18 20:56 36.738326 -119.691014 338 37859ft 497kts
02-Oct-18 20:57 36.871223 -119.738013 337 37860ft 497kts
02-Oct-18 20:58 37.003753 -119.784878 338 37862ft 494kts
02-Oct-18 20:59 37.130742 -119.829775 339 37850ft 471kts
02-Oct-18 21:00 37.256129 -119.874109 339 37842ft 474kts
02-Oct-18 21:01 37.383160 -119.919019 339 37842ft 474kts
02-Oct-18 21:02 37.509339 -119.963626 340 37839ft 474kts
02-Oct-18 21:03 37.636091 -120.008435 340 37823ft 474kts
02-Oct-18 21:04 37.762848 -120.053255 340 37836ft 474kts
02-Oct-18 21:05 37.889752 -120.098137 340 37882ft 475kts
02-Oct-18 21:06 38.015723 -120.145255 338 37902ft 474kts
02-Oct-18 21:07 38.139661 -120.192646 339 37907ft 473kts
02-Oct-18 21:08 38.264564 -120.240443 339 37899ft 473kts
02-Oct-18 21:09 38.390642 -120.288679 339 37896ft 474kts
02-Oct-18 21:10 38.516407 -120.336792 339 37989ft 474kts
02-Oct-18 21:11 38.642503 -120.385040 339 38021ft 474kts
02-Oct-18 21:12 38.768214 -120.433138 339 38001ft 474kts
02-Oct-18 21:13 38.893849 -120.481209 339 37979ft 473kts
02-Oct-18 21:14 39.018859 -120.529054 342 38043ft 463kts
02-Oct-18 21:15 39.138889 -120.574967 342 38080ft 461kts
02-Oct-18 21:16 39.260883 -120.621607 342 38077ft 461kts
02-Oct-18 21:17 39.382427 -120.668110 341 38079ft 461kts
02-Oct-18 21:18 39.504135 -120.714684 341 38084ft 460kts
02-Oct-18 21:19 39.626751 -120.761576 341 38071ft 460kts
02-Oct-18 21:20 39.749118 -120.808397 341 38042ft 460kts
02-Oct-18 21:21 39.871723 -120.855293 342 38016ft 461kts
02-Oct-18 21:22 39.994253 -120.902130 342 38028ft 460kts
02-Oct-18 21:23 40.114866 -120.948292 342 38025ft 460kts
02-Oct-18 21:24 40.237145 -120.995041 342 38030ft 462kts
02-Oct-18 21:25 40.360228 -121.042123 344 38026ft 462kts
02-Oct-18 21:26 40.482636 -121.088919 344 38029ft 458kts
02-Oct-18 21:27 40.604493 -121.135509 344 38025ft 453kts
02-Oct-18 21:28 40.724539 -121.181420 344 38023ft 449kts
02-Oct-18 21:29 40.843678 -121.226946 345 38015ft 447kts
02-Oct-18 21:30 40.962554 -121.272415 345 37979ft 447kts
02-Oct-18 21:31 41.079918 -121.317283 345 37989ft 430kts
02-Oct-18 21:32 41.190496 -121.359536 345 38015ft 425kts
02-Oct-18 21:33 41.303386 -121.402660 345 38012ft 424kts
02-Oct-18 21:34 41.416708 -121.446002 345 37998ft 424kts
02-Oct-18 21:35 41.529785 -121.489154 345 38005ft 425kts
02-Oct-18 21:36 41.643026 -121.532444 345 38002ft 424kts
02-Oct-18 21:37 41.756298 -121.575716 345 37997ft 425kts
02-Oct-18 21:38 41.869249 -121.618904 345 38003ft 425kts
02-Oct-18 21:39 41.981532 -121.661797 344 37996ft 425kts
02-Oct-18 21:40 42.094739 -121.705138 344 37995ft 425kts
02-Oct-18 21:41 42.205170 -121.752703 340 37554ft 429kts
02-Oct-18 21:42 42.282657 -121.791731 340 36524ft 421kts
02-Oct-18 21:43 42.350856 -121.825761 340 35615ft 423kts
02-Oct-18 21:44 42.456591 -121.878741 340 34283ft 428kts
02-Oct-18 21:45 42.565086 -121.933241 340 33129ft 430kts
02-Oct-18 21:46 42.674022 -121.988121 340 32150ft 431kts
02-Oct-18 21:47 42.781928 -122.042707 340 31314ft 433kts
02-Oct-18 21:48 42.887969 -122.096524 339 30601ft 435kts
02-Oct-18 21:49 42.993002 -122.149988 338 29906ft 429kts
02-Oct-18 21:50 43.099632 -122.204496 337 29263ft 429kts
02-Oct-18 21:51 43.198264 -122.255160 337 28744ft 431kts
02-Oct-18 21:52 43.287270 -122.301030 336 28272ft 432kts
02-Oct-18 21:53 43.372852 -122.345270 336 27814ft 433kts
02-Oct-18 21:54 43.457941 -122.389392 336 27357ft 434kts
02-Oct-18 21:55 43.542591 -122.433420 336 26899ft 436kts
02-Oct-18 21:56 43.624521 -122.476157 336 26453ft 436kts
02-Oct-18 21:57 43.705456 -122.518498 336 26025ft 437kts
02-Oct-18 21:58 43.798698 -122.567433 336 25553ft 438kts
02-Oct-18 21:59 43.907095 -122.624523 336 24998ft 440kts
02-Oct-18 22:00 44.007434 -122.677606 335 24503ft 441kts
02-Oct-18 22:01 44.101686 -122.727664 335 24052ft 442kts
02-Oct-18 22:02 44.196266 -122.748417 357 22872ft 416kts
02-Oct-18 22:03 44.295459 -122.738840 358 20640ft 372kts
02-Oct-18 22:04 44.352105 -122.733134 357 19721ft 354kts
02-Oct-18 22:05 44.425338 -122.725814 357 18552ft 336kts
02-Oct-18 22:06 44.493900 -122.719047 357 17446ft 332kts
02-Oct-18 22:07 44.569161 -122.711593 357 16218ft 327kts
02-Oct-18 22:08 44.630994 -122.705416 357 15260ft 323kts
02-Oct-18 22:09 44.681774 -122.700331 357 14588ft 322kts
02-Oct-18 22:10 44.747522 -122.693700 356 13696ft 314kts
02-Oct-18 22:11 44.806885 -122.687687 356 12860ft 304kts
02-Oct-18 22:12 44.875773 -122.680797 356 11885ft 301kts
02-Oct-18 22:13 44.933756 -122.674983 357 11055ft 297kts
02-Oct-18 22:14 44.998391 -122.668447 357 10118ft 292kts
02-Oct-18 22:15 45.049506 -122.663241 357 9359ft 286kts
02-Oct-18 22:16 45.105760 -122.657617 358 8542ft 294kts
02-Oct-18 22:17 45.165284 -122.651540 358 7787ft 286kts
02-Oct-18 22:18 45.222342 -122.645729 359 7062ft 283kts
02-Oct-18 22:19 45.292427 -122.605788 31 6191ft 280kts
02-Oct-18 22:20 45.356485 -122.546838 28 5357ft 269kts
02-Oct-18 22:21 45.399585 -122.467086 54 4381ft 251kts
02-Oct-18 22:22 45.435183 -122.387634 54 3505ft 221kts
02-Oct-18 22:23 45.483216 -122.357234 332 2993ft 213kts
02-Oct-18 22:24 45.515826 -122.419473 300 2616ft 183kts
02-Oct-18 22:25 45.537675 -122.474681 299 1771ft 147kts
02-Oct-18 22:26 45.557551 -122.524493 299 944ft 143kts
02-Oct-18 22:27 45.576604 -122.573523 297 241ft 141kts
02-Oct-18 22:28 45.588304 -122.602046 335 37ft 27kts
02-Oct-18 22:29 45.588726 -122.599493 122 37ft 16kts
02-Oct-18 22:30 45.588580 -122.596936 8 37ft 2kts
02-Oct-18 22:31 45.588609 -122.596929 8 37ft 0kts

Navigation Log

Ident Type
Flight plan parsing failed, navigation log unavailable